sensor_id;sensor_type;location;lat;lon;timestamp;temperature;humidity
12060;DHT22;6091;51.432;6.880;2023-02-28T00:01:30;21.50;32.80
12060;DHT22;6091;51.432;6.880;2023-02-28T00:03:58;21.40;32.60
12060;DHT22;6091;51.432;6.880;2023-02-28T00:06:26;21.40;32.60
12060;DHT22;6091;51.432;6.880;2023-02-28T00:08:53;21.40;32.60
12060;DHT22;6091;51.432;6.880;2023-02-28T00:11:21;21.40;32.60
12060;DHT22;6091;51.432;6.880;2023-02-28T00:13:48;21.40;32.70
12060;DHT22;6091;51.432;6.880;2023-02-28T00:16:18;21.40;32.70
12060;DHT22;6091;51.432;6.880;2023-02-28T00:18:47;21.40;32.70
12060;DHT22;6091;51.432;6.880;2023-02-28T00:21:15;21.40;32.70
12060;DHT22;6091;51.432;6.880;2023-02-28T00:23:43;21.30;32.70
12060;DHT22;6091;51.432;6.880;2023-02-28T00:26:11;21.30;32.70
12060;DHT22;6091;51.432;6.880;2023-02-28T00:28:38;21.70;33.10
12060;DHT22;6091;51.432;6.880;2023-02-28T00:31:05;21.30;32.70
12060;DHT22;6091;51.432;6.880;2023-02-28T00:33:32;21.30;32.80
12060;DHT22;6091;51.432;6.880;2023-02-28T00:36:09;21.30;32.80
12060;DHT22;6091;51.432;6.880;2023-02-28T00:38:38;21.30;33.20
12060;DHT22;6091;51.432;6.880;2023-02-28T00:41:07;21.30;32.80
12060;DHT22;6091;51.432;6.880;2023-02-28T00:43:37;21.20;32.80
12060;DHT22;6091;51.432;6.880;2023-02-28T00:46:06;21.20;32.80
12060;DHT22;6091;51.432;6.880;2023-02-28T00:48:34;21.20;32.80
12060;DHT22;6091;51.432;6.880;2023-02-28T00:51:01;21.20;32.90
12060;DHT22;6091;51.432;6.880;2023-02-28T00:53:29;21.20;32.90
12060;DHT22;6091;51.432;6.880;2023-02-28T00:55:56;21.20;32.90
12060;DHT22;6091;51.432;6.880;2023-02-28T00:58:23;21.20;32.90
12060;DHT22;6091;51.432;6.880;2023-02-28T01:00:51;21.20;32.90
12060;DHT22;6091;51.432;6.880;2023-02-28T01:03:20;21.20;33.00
12060;DHT22;6091;51.432;6.880;2023-02-28T01:05:47;21.10;32.90
12060;DHT22;6091;51.432;6.880;2023-02-28T01:08:14;21.10;32.90
12060;DHT22;6091;51.432;6.880;2023-02-28T01:10:42;21.10;32.90
12060;DHT22;6091;51.432;6.880;2023-02-28T01:13:09;21.10;32.90
12060;DHT22;6091;51.432;6.880;2023-02-28T01:15:40;21.10;33.00
12060;DHT22;6091;51.432;6.880;2023-02-28T01:18:10;21.10;33.00
12060;DHT22;6091;51.432;6.880;2023-02-28T01:20:37;21.10;33.00
12060;DHT22;6091;51.432;6.880;2023-02-28T01:23:05;21.10;33.00
12060;DHT22;6091;51.432;6.880;2023-02-28T01:25:34;21.10;33.00
12060;DHT22;6091;51.432;6.880;2023-02-28T01:28:02;21.00;33.00
12060;DHT22;6091;51.432;6.880;2023-02-28T01:30:30;21.00;33.00
12060;DHT22;6091;51.432;6.880;2023-02-28T01:32:57;21.00;33.00
12060;DHT22;6091;51.432;6.880;2023-02-28T01:35:25;21.00;33.00
12060;DHT22;6091;51.432;6.880;2023-02-28T01:37:52;21.00;33.10
12060;DHT22;6091;51.432;6.880;2023-02-28T01:40:19;21.00;33.10
12060;DHT22;6091;51.432;6.880;2023-02-28T01:42:46;20.90;33.00
12060;DHT22;6091;51.432;6.880;2023-02-28T01:45:22;20.90;33.00
12060;DHT22;6091;51.432;6.880;2023-02-28T01:48:06;20.90;33.20
12060;DHT22;6091;51.432;6.880;2023-02-28T01:50:39;20.90;33.10
12060;DHT22;6091;51.432;6.880;2023-02-28T01:53:21;20.90;33.10
12060;DHT22;6091;51.432;6.880;2023-02-28T01:55:53;20.90;33.20
12060;DHT22;6091;51.432;6.880;2023-02-28T01:58:21;20.90;33.10
12060;DHT22;6091;51.432;6.880;2023-02-28T02:00:48;20.90;33.10
12060;DHT22;6091;51.432;6.880;2023-02-28T02:03:17;20.90;33.10
12060;DHT22;6091;51.432;6.880;2023-02-28T02:05:47;20.80;33.10
12060;DHT22;6091;51.432;6.880;2023-02-28T02:08:23;20.90;33.20
12060;DHT22;6091;51.432;6.880;2023-02-28T02:10:55;20.90;33.30
12060;DHT22;6091;51.432;6.880;2023-02-28T02:16:39;20.90;33.30
12060;DHT22;6091;51.432;6.880;2023-02-28T02:22:29;20.80;33.30
12060;DHT22;6091;51.432;6.880;2023-02-28T02:25:25;20.80;33.40
12060;DHT22;6091;51.432;6.880;2023-02-28T02:28:35;20.80;33.20
12060;DHT22;6091;51.432;6.880;2023-02-28T02:34:43;20.80;33.40
12060;DHT22;6091;51.432;6.880;2023-02-28T02:37:26;20.70;33.20
12060;DHT22;6091;51.432;6.880;2023-02-28T02:40:04;20.70;33.20
12060;DHT22;6091;51.432;6.880;2023-02-28T02:43:02;20.70;33.30
12060;DHT22;6091;51.432;6.880;2023-02-28T02:45:42;20.70;33.30
12060;DHT22;6091;51.432;6.880;2023-02-28T02:48:17;20.70;33.20
12060;DHT22;6091;51.432;6.880;2023-02-28T02:50:53;20.60;33.20
12060;DHT22;6091;51.432;6.880;2023-02-28T02:53:37;20.70;33.30
12060;DHT22;6091;51.432;6.880;2023-02-28T02:56:20;20.60;33.30
12060;DHT22;6091;51.432;6.880;2023-02-28T02:58:52;20.60;33.20
12060;DHT22;6091;51.432;6.880;2023-02-28T03:01:26;20.60;33.20
12060;DHT22;6091;51.432;6.880;2023-02-28T03:03:58;20.60;33.30
12060;DHT22;6091;51.432;6.880;2023-02-28T03:06:28;20.60;33.30
12060;DHT22;6091;51.432;6.880;2023-02-28T03:08:55;20.60;33.30
12060;DHT22;6091;51.432;6.880;2023-02-28T03:11:22;20.60;33.30
12060;DHT22;6091;51.432;6.880;2023-02-28T03:14:10;20.60;33.40
12060;DHT22;6091;51.432;6.880;2023-02-28T03:23:36;20.60;33.40
12060;DHT22;6091;51.432;6.880;2023-02-28T03:26:23;20.60;33.50
12060;DHT22;6091;51.432;6.880;2023-02-28T03:29:04;20.50;33.40
12060;DHT22;6091;51.432;6.880;2023-02-28T03:32:00;20.50;33.90
12060;DHT22;6091;51.432;6.880;2023-02-28T03:34:37;20.50;33.50
12060;DHT22;6091;51.432;6.880;2023-02-28T03:37:13;20.50;33.30
12060;DHT22;6091;51.432;6.880;2023-02-28T03:39:58;20.50;33.40
12060;DHT22;6091;51.432;6.880;2023-02-28T03:42:30;20.50;33.40
12060;DHT22;6091;51.432;6.880;2023-02-28T03:45:04;20.50;33.50
12060;DHT22;6091;51.432;6.880;2023-02-28T03:47:40;20.50;33.40
12060;DHT22;6091;51.432;6.880;2023-02-28T03:53:13;20.40;33.40
12060;DHT22;6091;51.432;6.880;2023-02-28T03:56:01;20.40;33.50
12060;DHT22;6091;51.432;6.880;2023-02-28T03:58:41;20.40;33.50
12060;DHT22;6091;51.432;6.880;2023-02-28T04:01:38;20.40;33.50
12060;DHT22;6091;51.432;6.880;2023-02-28T04:04:10;20.40;33.50
12060;DHT22;6091;51.432;6.880;2023-02-28T04:06:38;20.40;33.40
12060;DHT22;6091;51.432;6.880;2023-02-28T04:09:07;20.40;33.40
12060;DHT22;6091;51.432;6.880;2023-02-28T04:11:40;20.30;33.40
12060;DHT22;6091;51.432;6.880;2023-02-28T04:14:11;20.30;33.40
12060;DHT22;6091;51.432;6.880;2023-02-28T04:16:40;20.30;33.40
12060;DHT22;6091;51.432;6.880;2023-02-28T04:19:10;20.30;33.50
12060;DHT22;6091;51.432;6.880;2023-02-28T04:24:23;20.30;33.50
12060;DHT22;6091;51.432;6.880;2023-02-28T04:26:54;20.30;33.60
12060;DHT22;6091;51.432;6.880;2023-02-28T04:29:30;20.30;33.50
12060;DHT22;6091;51.432;6.880;2023-02-28T04:32:02;20.30;33.60
12060;DHT22;6091;51.432;6.880;2023-02-28T04:34:31;20.30;33.50
12060;DHT22;6091;51.432;6.880;2023-02-28T04:36:59;20.30;33.60
12060;DHT22;6091;51.432;6.880;2023-02-28T04:39:43;20.30;33.60
12060;DHT22;6091;51.432;6.880;2023-02-28T04:42:10;20.30;33.60
12060;DHT22;6091;51.432;6.880;2023-02-28T04:44:38;20.30;33.60
12060;DHT22;6091;51.432;6.880;2023-02-28T04:47:05;20.20;33.50
12060;DHT22;6091;51.432;6.880;2023-02-28T04:49:32;20.20;33.50
12060;DHT22;6091;51.432;6.880;2023-02-28T04:51:59;20.20;33.50
12060;DHT22;6091;51.432;6.880;2023-02-28T04:54:26;20.20;33.50
12060;DHT22;6091;51.432;6.880;2023-02-28T04:56:54;20.20;33.60
12060;DHT22;6091;51.432;6.880;2023-02-28T04:59:22;20.20;33.60
12060;DHT22;6091;51.432;6.880;2023-02-28T05:01:49;20.20;33.60
12060;DHT22;6091;51.432;6.880;2023-02-28T05:04:17;20.20;33.60
12060;DHT22;6091;51.432;6.880;2023-02-28T05:06:44;20.20;33.90
12060;DHT22;6091;51.432;6.880;2023-02-28T05:09:11;20.20;33.60
12060;DHT22;6091;51.432;6.880;2023-02-28T05:11:38;20.20;33.60
12060;DHT22;6091;51.432;6.880;2023-02-28T05:14:12;20.20;33.60
12060;DHT22;6091;51.432;6.880;2023-02-28T05:16:40;20.20;33.70
12060;DHT22;6091;51.432;6.880;2023-02-28T05:19:07;20.20;33.70
12060;DHT22;6091;51.432;6.880;2023-02-28T05:21:37;20.10;33.60
12060;DHT22;6091;51.432;6.880;2023-02-28T05:24:14;20.10;33.60
12060;DHT22;6091;51.432;6.880;2023-02-28T05:26:43;20.10;33.60
12060;DHT22;6091;51.432;6.880;2023-02-28T05:29:10;20.10;33.70
12060;DHT22;6091;51.432;6.880;2023-02-28T05:31:37;20.10;33.70
12060;DHT22;6091;51.432;6.880;2023-02-28T05:34:04;20.10;33.70
12060;DHT22;6091;51.432;6.880;2023-02-28T05:36:31;20.10;33.70
12060;DHT22;6091;51.432;6.880;2023-02-28T05:38:59;20.10;33.70
12060;DHT22;6091;51.432;6.880;2023-02-28T05:41:26;20.10;33.70
12060;DHT22;6091;51.432;6.880;2023-02-28T05:43:54;20.10;33.70
12060;DHT22;6091;51.432;6.880;2023-02-28T05:46:21;20.00;33.70
12060;DHT22;6091;51.432;6.880;2023-02-28T05:48:48;20.00;33.60
12060;DHT22;6091;51.432;6.880;2023-02-28T05:51:16;20.00;33.70
12060;DHT22;6091;51.432;6.880;2023-02-28T05:53:44;20.00;33.70
12060;DHT22;6091;51.432;6.880;2023-02-28T05:56:11;20.00;33.70
12060;DHT22;6091;51.432;6.880;2023-02-28T05:58:38;20.00;33.70
12060;DHT22;6091;51.432;6.880;2023-02-28T06:03:58;20.00;33.90
12060;DHT22;6091;51.432;6.880;2023-02-28T06:06:27;20.00;33.70
12060;DHT22;6091;51.432;6.880;2023-02-28T06:08:56;20.00;33.70
12060;DHT22;6091;51.432;6.880;2023-02-28T06:11:23;20.00;33.70
12060;DHT22;6091;51.432;6.880;2023-02-28T06:13:58;20.00;33.80
12060;DHT22;6091;51.432;6.880;2023-02-28T06:16:28;20.00;33.80
12060;DHT22;6091;51.432;6.880;2023-02-28T06:19:01;20.00;33.80
12060;DHT22;6091;51.432;6.880;2023-02-28T06:21:31;20.00;33.80
12060;DHT22;6091;51.432;6.880;2023-02-28T06:23:58;20.00;33.80
12060;DHT22;6091;51.432;6.880;2023-02-28T06:26:26;19.90;33.70
12060;DHT22;6091;51.432;6.880;2023-02-28T06:28:54;19.90;33.80
12060;DHT22;6091;51.432;6.880;2023-02-28T06:31:21;19.90;33.80
12060;DHT22;6091;51.432;6.880;2023-02-28T06:33:49;19.90;33.80
12060;DHT22;6091;51.432;6.880;2023-02-28T06:36:17;19.90;33.80
12060;DHT22;6091;51.432;6.880;2023-02-28T06:38:45;19.90;33.90
12060;DHT22;6091;51.432;6.880;2023-02-28T06:41:12;19.90;34.60
12060;DHT22;6091;51.432;6.880;2023-02-28T06:43:41;20.00;34.10
12060;DHT22;6091;51.432;6.880;2023-02-28T06:46:12;20.00;34.30
12060;DHT22;6091;51.432;6.880;2023-02-28T06:48:42;20.00;34.40
12060;DHT22;6091;51.432;6.880;2023-02-28T06:51:17;20.10;34.60
12060;DHT22;6091;51.432;6.880;2023-02-28T06:53:46;20.20;34.80
12060;DHT22;6091;51.432;6.880;2023-02-28T06:56:15;20.30;34.80
12060;DHT22;6091;51.432;6.880;2023-02-28T06:58:47;20.50;34.90
12060;DHT22;6091;51.432;6.880;2023-02-28T07:01:16;20.70;35.00
12060;DHT22;6091;51.432;6.880;2023-02-28T07:03:43;20.80;34.90
12060;DHT22;6091;51.432;6.880;2023-02-28T07:06:11;21.00;35.00
12060;DHT22;6091;51.432;6.880;2023-02-28T07:08:38;21.10;34.90
12060;DHT22;6091;51.432;6.880;2023-02-28T07:11:07;21.30;35.00
12060;DHT22;6091;51.432;6.880;2023-02-28T07:13:35;21.40;34.20
12060;DHT22;6091;51.432;6.880;2023-02-28T07:16:05;21.50;33.40
12060;DHT22;6091;51.432;6.880;2023-02-28T07:18:35;21.60;32.70
12060;DHT22;6091;51.432;6.880;2023-02-28T07:21:07;21.60;32.30
12060;DHT22;6091;51.432;6.880;2023-02-28T07:23:36;21.60;31.60
12060;DHT22;6091;51.432;6.880;2023-02-28T07:26:11;21.60;31.50
12060;DHT22;6091;51.432;6.880;2023-02-28T07:28:42;21.60;31.10
12060;DHT22;6091;51.432;6.880;2023-02-28T07:31:10;21.50;31.80
12060;DHT22;6091;51.432;6.880;2023-02-28T07:33:41;21.50;32.40
12060;DHT22;6091;51.432;6.880;2023-02-28T07:36:11;21.50;32.80
12060;DHT22;6091;51.432;6.880;2023-02-28T07:38:43;21.60;33.10
12060;DHT22;6091;51.432;6.880;2023-02-28T07:41:15;21.60;33.30
12060;DHT22;6091;51.432;6.880;2023-02-28T07:43:44;21.80;33.50
12060;DHT22;6091;51.432;6.880;2023-02-28T07:46:14;21.90;33.70
12060;DHT22;6091;51.432;6.880;2023-02-28T07:48:43;22.00;33.70
12060;DHT22;6091;51.432;6.880;2023-02-28T07:51:10;22.20;33.90
12060;DHT22;6091;51.432;6.880;2023-02-28T07:53:37;22.30;33.90
12060;DHT22;6091;51.432;6.880;2023-02-28T07:56:05;22.40;34.50
12060;DHT22;6091;51.432;6.880;2023-02-28T07:58:33;22.60;34.00
12060;DHT22;6091;51.432;6.880;2023-02-28T08:01:09;22.70;34.60
12060;DHT22;6091;51.432;6.880;2023-02-28T08:03:38;22.80;33.80
12060;DHT22;6091;51.432;6.880;2023-02-28T08:06:11;22.90;34.00
12060;DHT22;6091;51.432;6.880;2023-02-28T08:08:46;23.00;33.90
12060;DHT22;6091;51.432;6.880;2023-02-28T08:11:14;23.20;34.00
12060;DHT22;6091;51.432;6.880;2023-02-28T08:13:43;23.20;33.90
12060;DHT22;6091;51.432;6.880;2023-02-28T08:16:12;23.50;34.10
12060;DHT22;6091;51.432;6.880;2023-02-28T08:18:52;23.40;34.40
12060;DHT22;6091;51.432;6.880;2023-02-28T08:21:20;23.50;33.80
12060;DHT22;6091;51.432;6.880;2023-02-28T08:23:49;23.60;33.80
12060;DHT22;6091;51.432;6.880;2023-02-28T08:26:18;23.70;33.80
12060;DHT22;6091;51.432;6.880;2023-02-28T08:28:46;23.70;33.70
12060;DHT22;6091;51.432;6.880;2023-02-28T08:31:15;23.80;33.80
12060;DHT22;6091;51.432;6.880;2023-02-28T08:33:43;23.80;33.70
12060;DHT22;6091;51.432;6.880;2023-02-28T08:36:11;23.90;33.70
12060;DHT22;6091;51.432;6.880;2023-02-28T08:38:38;23.90;33.60
12060;DHT22;6091;51.432;6.880;2023-02-28T08:41:08;24.00;33.70
12060;DHT22;6091;51.432;6.880;2023-02-28T08:43:38;24.00;33.60
12060;DHT22;6091;51.432;6.880;2023-02-28T08:46:07;24.10;33.60
12060;DHT22;6091;51.432;6.880;2023-02-28T08:48:35;24.10;33.60
12060;DHT22;6091;51.432;6.880;2023-02-28T08:51:06;24.10;33.50
12060;DHT22;6091;51.432;6.880;2023-02-28T08:53:36;24.10;33.40
12060;DHT22;6091;51.432;6.880;2023-02-28T08:56:15;24.20;33.50
12060;DHT22;6091;51.432;6.880;2023-02-28T08:58:47;24.20;33.30
12060;DHT22;6091;51.432;6.880;2023-02-28T09:01:20;24.30;33.50
12060;DHT22;6091;51.432;6.880;2023-02-28T09:03:51;24.30;33.40
12060;DHT22;6091;51.432;6.880;2023-02-28T09:06:20;24.30;33.50
12060;DHT22;6091;51.432;6.880;2023-02-28T09:08:49;24.30;33.40
12060;DHT22;6091;51.432;6.880;2023-02-28T09:11:16;24.30;33.40
12060;DHT22;6091;51.432;6.880;2023-02-28T09:13:45;24.40;33.40
12060;DHT22;6091;51.432;6.880;2023-02-28T09:16:14;24.40;33.40
12060;DHT22;6091;51.432;6.880;2023-02-28T09:18:43;24.40;33.40
12060;DHT22;6091;51.432;6.880;2023-02-28T09:21:13;24.40;33.40
12060;DHT22;6091;51.432;6.880;2023-02-28T09:23:46;24.40;33.40
12060;DHT22;6091;51.432;6.880;2023-02-28T09:26:24;24.40;33.30
12060;DHT22;6091;51.432;6.880;2023-02-28T09:28:54;24.50;33.30
12060;DHT22;6091;51.432;6.880;2023-02-28T09:31:26;24.40;33.20
12060;DHT22;6091;51.432;6.880;2023-02-28T09:33:56;24.40;33.30
12060;DHT22;6091;51.432;6.880;2023-02-28T09:36:25;24.50;33.50
12060;DHT22;6091;51.432;6.880;2023-02-28T09:39:09;24.50;34.10
12060;DHT22;6091;51.432;6.880;2023-02-28T09:41:39;24.50;33.60
12060;DHT22;6091;51.432;6.880;2023-02-28T09:47:30;24.70;33.80
12060;DHT22;6091;51.432;6.880;2023-02-28T09:50:17;24.80;33.80
12060;DHT22;6091;51.432;6.880;2023-02-28T09:52:56;24.90;33.90
12060;DHT22;6091;51.432;6.880;2023-02-28T09:55:36;25.00;34.00
12060;DHT22;6091;51.432;6.880;2023-02-28T10:10:23;25.60;34.00
12060;DHT22;6091;51.432;6.880;2023-02-28T10:16:15;25.80;33.60
12060;DHT22;6091;51.432;6.880;2023-02-28T10:18:56;25.80;33.90
12060;DHT22;6091;51.432;6.880;2023-02-28T10:24:26;25.90;33.40
12060;DHT22;6091;51.432;6.880;2023-02-28T10:27:31;26.00;33.20
12060;DHT22;6091;51.432;6.880;2023-02-28T10:30:00;26.10;33.10
12060;DHT22;6091;51.432;6.880;2023-02-28T10:32:33;26.10;33.40
12060;DHT22;6091;51.432;6.880;2023-02-28T10:37:42;26.20;32.90
12060;DHT22;6091;51.432;6.880;2023-02-28T10:43:05;26.40;32.90
12060;DHT22;6091;51.432;6.880;2023-02-28T10:45:59;26.30;32.20
12060;DHT22;6091;51.432;6.880;2023-02-28T10:48:38;26.30;32.50
12060;DHT22;6091;51.432;6.880;2023-02-28T10:51:14;26.00;32.60
12060;DHT22;6091;51.432;6.880;2023-02-28T10:56:27;26.60;32.80
12060;DHT22;6091;51.432;6.880;2023-02-28T11:01:43;26.70;32.40
12060;DHT22;6091;51.432;6.880;2023-02-28T11:07:16;26.80;32.40
12060;DHT22;6091;51.432;6.880;2023-02-28T11:09:52;26.90;32.50
12060;DHT22;6091;51.432;6.880;2023-02-28T11:12:33;26.90;32.80
12060;DHT22;6091;51.432;6.880;2023-02-28T11:17:55;27.20;32.40
12060;DHT22;6091;51.432;6.880;2023-02-28T11:20:32;27.40;32.80
12060;DHT22;6091;51.432;6.880;2023-02-28T11:23:02;27.60;32.40
12060;DHT22;6091;51.432;6.880;2023-02-28T11:25:33;27.70;32.60
12060;DHT22;6091;51.432;6.880;2023-02-28T11:28:28;27.80;32.40
12060;DHT22;6091;51.432;6.880;2023-02-28T11:31:05;28.00;31.90
12060;DHT22;6091;51.432;6.880;2023-02-28T11:33:51;28.20;32.00
12060;DHT22;6091;51.432;6.880;2023-02-28T11:36:26;28.30;32.20
12060;DHT22;6091;51.432;6.880;2023-02-28T11:39:08;28.50;32.30
12060;DHT22;6091;51.432;6.880;2023-02-28T11:45:07;28.90;31.70
12060;DHT22;6091;51.432;6.880;2023-02-28T11:48:22;29.20;30.30
12060;DHT22;6091;51.432;6.880;2023-02-28T11:51:33;29.40;29.90
12060;DHT22;6091;51.432;6.880;2023-02-28T11:57:11;29.70;30.60
12060;DHT22;6091;51.432;6.880;2023-02-28T12:00:32;29.80;31.00
12060;DHT22;6091;51.432;6.880;2023-02-28T12:03:24;30.00;30.50
12060;DHT22;6091;51.432;6.880;2023-02-28T12:06:33;30.20;31.00
12060;DHT22;6091;51.432;6.880;2023-02-28T12:24:54;31.10;30.00
12060;DHT22;6091;51.432;6.880;2023-02-28T12:27:44;31.20;29.80
12060;DHT22;6091;51.432;6.880;2023-02-28T12:30:21;31.30;29.60
12060;DHT22;6091;51.432;6.880;2023-02-28T12:33:07;31.30;29.60
12060;DHT22;6091;51.432;6.880;2023-02-28T12:35:51;31.40;29.30
12060;DHT22;6091;51.432;6.880;2023-02-28T12:38:28;31.50;29.30
12060;DHT22;6091;51.432;6.880;2023-02-28T12:44:19;31.60;29.20
12060;DHT22;6091;51.432;6.880;2023-02-28T12:47:05;31.70;29.10
12060;DHT22;6091;51.432;6.880;2023-02-28T12:49:46;31.80;29.40
12060;DHT22;6091;51.432;6.880;2023-02-28T12:52:25;31.80;29.20
12060;DHT22;6091;51.432;6.880;2023-02-28T13:00:19;31.90;28.10
12060;DHT22;6091;51.432;6.880;2023-02-28T13:09:14;32.10;28.70
12060;DHT22;6091;51.432;6.880;2023-02-28T13:11:51;32.20;28.70
12060;DHT22;6091;51.432;6.880;2023-02-28T13:14:38;32.30;28.60
12060;DHT22;6091;51.432;6.880;2023-02-28T13:19:42;32.40;28.80
12060;DHT22;6091;51.432;6.880;2023-02-28T13:28:01;32.70;28.30
12060;DHT22;6091;51.432;6.880;2023-02-28T13:33:30;32.50;28.10
12060;DHT22;6091;51.432;6.880;2023-02-28T13:38:49;32.40;28.00
12060;DHT22;6091;51.432;6.880;2023-02-28T13:44:14;32.10;27.80
12060;DHT22;6091;51.432;6.880;2023-02-28T13:49:28;31.60;27.80
12060;DHT22;6091;51.432;6.880;2023-02-28T13:55:15;31.20;27.80
12060;DHT22;6091;51.432;6.880;2023-02-28T14:01:08;30.80;28.00
12060;DHT22;6091;51.432;6.880;2023-02-28T14:06:59;30.40;28.00
12060;DHT22;6091;51.432;6.880;2023-02-28T14:09:37;30.30;28.20
12060;DHT22;6091;51.432;6.880;2023-02-28T14:17:55;29.90;28.40
12060;DHT22;6091;51.432;6.880;2023-02-28T14:20:26;29.80;28.40
12060;DHT22;6091;51.432;6.880;2023-02-28T14:37:44;29.30;28.60
12060;DHT22;6091;51.432;6.880;2023-02-28T14:40:30;29.20;28.70
12060;DHT22;6091;51.432;6.880;2023-02-28T14:43:06;29.10;28.90
12060;DHT22;6091;51.432;6.880;2023-02-28T14:45:53;29.00;28.80
12060;DHT22;6091;51.432;6.880;2023-02-28T14:48:26;29.00;28.80
12060;DHT22;6091;51.432;6.880;2023-02-28T14:50:58;29.00;28.70
12060;DHT22;6091;51.432;6.880;2023-02-28T14:53:36;29.00;28.70
12060;DHT22;6091;51.432;6.880;2023-02-28T14:56:04;29.00;28.70
12060;DHT22;6091;51.432;6.880;2023-02-28T14:58:33;28.90;28.70
12060;DHT22;6091;51.432;6.880;2023-02-28T15:01:03;28.80;28.60
12060;DHT22;6091;51.432;6.880;2023-02-28T15:03:32;28.80;28.70
12060;DHT22;6091;51.432;6.880;2023-02-28T15:06:17;28.80;28.70
12060;DHT22;6091;51.432;6.880;2023-02-28T15:08:45;28.70;28.70
12060;DHT22;6091;51.432;6.880;2023-02-28T15:11:17;28.60;28.90
12060;DHT22;6091;51.432;6.880;2023-02-28T15:13:51;28.60;29.00
12060;DHT22;6091;51.432;6.880;2023-02-28T15:22:06;28.50;28.90
12060;DHT22;6091;51.432;6.880;2023-02-28T15:24:45;28.50;28.90
12060;DHT22;6091;51.432;6.880;2023-02-28T15:27:22;28.70;27.00
12060;DHT22;6091;51.432;6.880;2023-02-28T15:29:59;28.30;25.90
12060;DHT22;6091;51.432;6.880;2023-02-28T15:32:36;28.20;25.50
12060;DHT22;6091;51.432;6.880;2023-02-28T15:37:53;27.80;26.20
12060;DHT22;6091;51.432;6.880;2023-02-28T15:40:28;27.60;26.80
12060;DHT22;6091;51.432;6.880;2023-02-28T15:43:13;29.60;28.00
12060;DHT22;6091;51.432;6.880;2023-02-28T15:45:48;27.50;27.10
12060;DHT22;6091;51.432;6.880;2023-02-28T15:48:24;27.30;27.20
12060;DHT22;6091;51.432;6.880;2023-02-28T15:50:55;27.60;27.50
12060;DHT22;6091;51.432;6.880;2023-02-28T15:53:34;27.20;27.40
12060;DHT22;6091;51.432;6.880;2023-02-28T15:56:38;27.30;27.60
12060;DHT22;6091;51.432;6.880;2023-02-28T15:59:30;27.20;27.60
12060;DHT22;6091;51.432;6.880;2023-02-28T16:04:37;27.20;27.90
12060;DHT22;6091;51.432;6.880;2023-02-28T16:07:21;27.30;28.30
12060;DHT22;6091;51.432;6.880;2023-02-28T16:09:48;27.30;28.10
12060;DHT22;6091;51.432;6.880;2023-02-28T16:12:15;27.30;28.10
12060;DHT22;6091;51.432;6.880;2023-02-28T16:14:43;27.40;28.20
12060;DHT22;6091;51.432;6.880;2023-02-28T16:17:20;27.40;28.20
12060;DHT22;6091;51.432;6.880;2023-02-28T16:19:49;27.40;28.20
12060;DHT22;6091;51.432;6.880;2023-02-28T16:22:16;27.40;28.20
12060;DHT22;6091;51.432;6.880;2023-02-28T16:24:43;27.50;28.20
12060;DHT22;6091;51.432;6.880;2023-02-28T16:27:31;27.50;28.20
12060;DHT22;6091;51.432;6.880;2023-02-28T16:30:04;27.50;28.30
12060;DHT22;6091;51.432;6.880;2023-02-28T16:32:35;27.50;28.70
12060;DHT22;6091;51.432;6.880;2023-02-28T16:35:03;27.40;28.30
12060;DHT22;6091;51.432;6.880;2023-02-28T16:37:36;27.50;28.30
12060;DHT22;6091;51.432;6.880;2023-02-28T16:40:04;27.40;28.30
12060;DHT22;6091;51.432;6.880;2023-02-28T16:42:32;27.40;28.30
12060;DHT22;6091;51.432;6.880;2023-02-28T16:44:59;27.40;28.30
12060;DHT22;6091;51.432;6.880;2023-02-28T16:47:26;27.40;28.30
12060;DHT22;6091;51.432;6.880;2023-02-28T16:49:53;27.30;28.30
12060;DHT22;6091;51.432;6.880;2023-02-28T16:52:20;27.30;28.30
12060;DHT22;6091;51.432;6.880;2023-02-28T16:54:47;27.30;28.30
12060;DHT22;6091;51.432;6.880;2023-02-28T16:57:21;27.20;28.30
12060;DHT22;6091;51.432;6.880;2023-02-28T16:59:50;27.20;28.40
12060;DHT22;6091;51.432;6.880;2023-02-28T17:02:19;27.20;28.30
12060;DHT22;6091;51.432;6.880;2023-02-28T17:04:47;27.10;28.40
12060;DHT22;6091;51.432;6.880;2023-02-28T17:07:15;27.00;28.30
12060;DHT22;6091;51.432;6.880;2023-02-28T17:09:44;27.00;28.40
12060;DHT22;6091;51.432;6.880;2023-02-28T17:12:12;27.00;28.40
12060;DHT22;6091;51.432;6.880;2023-02-28T17:14:39;26.90;28.40
12060;DHT22;6091;51.432;6.880;2023-02-28T17:17:09;26.90;28.50
12060;DHT22;6091;51.432;6.880;2023-02-28T17:19:42;26.80;27.70
12060;DHT22;6091;51.432;6.880;2023-02-28T17:22:10;26.70;27.40
12060;DHT22;6091;51.432;6.880;2023-02-28T17:24:37;26.60;27.30
12060;DHT22;6091;51.432;6.880;2023-02-28T17:27:04;26.50;27.60
12060;DHT22;6091;51.432;6.880;2023-02-28T17:29:32;26.50;27.70
12060;DHT22;6091;51.432;6.880;2023-02-28T17:31:59;26.50;27.90
12060;DHT22;6091;51.432;6.880;2023-02-28T17:34:41;26.40;28.00
12060;DHT22;6091;51.432;6.880;2023-02-28T17:37:09;26.40;28.00
12060;DHT22;6091;51.432;6.880;2023-02-28T17:39:36;26.30;28.10
12060;DHT22;6091;51.432;6.880;2023-02-28T17:42:03;26.20;28.10
12060;DHT22;6091;51.432;6.880;2023-02-28T17:44:30;26.20;28.10
12060;DHT22;6091;51.432;6.880;2023-02-28T17:46:57;26.30;28.30
12060;DHT22;6091;51.432;6.880;2023-02-28T17:49:25;26.10;28.20
12060;DHT22;6091;51.432;6.880;2023-02-28T17:51:53;26.00;28.30
12060;DHT22;6091;51.432;6.880;2023-02-28T17:54:20;26.00;28.30
12060;DHT22;6091;51.432;6.880;2023-02-28T17:56:47;26.00;28.40
12060;DHT22;6091;51.432;6.880;2023-02-28T17:59:14;25.80;29.00
12060;DHT22;6091;51.432;6.880;2023-02-28T18:01:42;25.70;29.00
12060;DHT22;6091;51.432;6.880;2023-02-28T18:04:09;25.70;28.90
12060;DHT22;6091;51.432;6.880;2023-02-28T18:06:41;25.60;29.40
12060;DHT22;6091;51.432;6.880;2023-02-28T18:09:18;25.60;29.20
12060;DHT22;6091;51.432;6.880;2023-02-28T18:11:51;25.60;29.00
12060;DHT22;6091;51.432;6.880;2023-02-28T18:14:21;25.50;28.90
12060;DHT22;6091;51.432;6.880;2023-02-28T18:16:51;25.50;28.90
12060;DHT22;6091;51.432;6.880;2023-02-28T18:19:19;25.50;28.80
12060;DHT22;6091;51.432;6.880;2023-02-28T18:21:49;25.50;28.80
12060;DHT22;6091;51.432;6.880;2023-02-28T18:24:19;25.40;28.70
12060;DHT22;6091;51.432;6.880;2023-02-28T18:26:50;25.40;28.70
12060;DHT22;6091;51.432;6.880;2023-02-28T18:29:23;25.30;28.60
12060;DHT22;6091;51.432;6.880;2023-02-28T18:31:53;25.30;28.70
12060;DHT22;6091;51.432;6.880;2023-02-28T18:34:22;25.20;28.60
12060;DHT22;6091;51.432;6.880;2023-02-28T18:36:51;25.10;28.60
12060;DHT22;6091;51.432;6.880;2023-02-28T18:39:19;25.10;28.70
12060;DHT22;6091;51.432;6.880;2023-02-28T18:41:46;25.00;28.70
12060;DHT22;6091;51.432;6.880;2023-02-28T18:44:13;25.00;28.70
12060;DHT22;6091;51.432;6.880;2023-02-28T18:46:49;24.90;28.70
12060;DHT22;6091;51.432;6.880;2023-02-28T18:49:17;24.90;28.80
12060;DHT22;6091;51.432;6.880;2023-02-28T18:51:45;24.80;28.80
12060;DHT22;6091;51.432;6.880;2023-02-28T18:54:14;24.70;28.80
12060;DHT22;6091;51.432;6.880;2023-02-28T18:56:42;24.70;28.80
12060;DHT22;6091;51.432;6.880;2023-02-28T18:59:10;24.60;28.80
12060;DHT22;6091;51.432;6.880;2023-02-28T19:01:37;24.60;28.80